Time;durP1;ratioP1;P1;durP2;ratioP2;P2;SDS_P1;SDS_P2;PMS_P1;PMS_P2;Temp;Humidity;BMP_temperature;BMP_pressure;BME280_temperature;BME280_humidity;BME280_pressure;Samples;Min_cycle;Max_cycle;Signal;HPM_P1;HPM_P2
2023/06/13 00:01:36;;;;;;;2.95;2.53;;;;;;;17.84;40.85;100964.88;6273242;22;20370;-84
2023/06/13 00:04:04;;;;;;;2.70;2.50;;;;;;;17.77;40.68;100958.03;6294942;22;20015;-90
2023/06/13 00:06:34;;;;;;;4.25;2.83;;;;;;;17.68;40.78;100954.81;6297329;22;20015;-77
2023/06/13 00:09:00;;;;;;;3.83;2.75;;;;;;;17.61;40.89;100955.06;6273016;22;20021;-77
2023/06/13 00:11:27;;;;;;;3.15;2.88;;;;;;;17.56;41.18;100955.22;6298451;22;20516;-79
2023/06/13 00:13:55;;;;;;;6.00;3.10;;;;;;;17.55;41.04;100961.44;6268721;22;20011;-80
2023/06/13 00:16:25;;;;;;;2.75;2.55;;;;;;;17.57;41.20;100956.06;6299323;22;20021;-78
2023/06/13 00:18:53;;;;;;;3.28;2.22;;;;;;;17.50;40.94;100956.28;6299513;22;20019;-78
2023/06/13 00:21:20;;;;;;;2.53;2.38;;;;;;;17.45;40.98;100958.22;6273433;22;20304;-79
2023/06/13 00:23:46;;;;;;;5.80;2.28;;;;;;;17.44;41.10;100945.91;6274183;22;20026;-83
2023/06/13 00:26:12;;;;;;;3.13;1.90;;;;;;;17.46;40.64;100959.09;6273596;22;20018;-81
2023/06/13 00:28:39;;;;;;;2.45;2.25;;;;;;;17.44;41.04;100961.78;6299867;22;20015;-78
2023/06/13 00:31:05;;;;;;;2.08;1.85;;;;;;;17.44;41.01;100958.25;6273479;22;20019;-84
2023/06/13 00:33:33;;;;;;;2.38;2.17;;;;;;;17.45;41.13;100957.34;6300042;22;20023;-78
2023/06/13 00:36:00;;;;;;;4.07;2.35;;;;;;;17.44;41.02;100955.63;6300598;22;20395;-78
2023/06/13 00:38:29;;;;;;;3.33;2.42;;;;;;;17.44;40.85;100953.84;6282756;22;20017;-78
2023/06/13 00:40:55;;;;;;;2.40;1.92;;;;;;;17.44;40.72;100951.22;6275286;22;20065;-82
2023/06/13 00:43:21;;;;;;;3.85;2.05;;;;;;;17.43;40.79;100948.59;6300218;22;20019;-82
2023/06/13 00:45:48;;;;;;;2.97;2.33;;;;;;;17.40;40.92;100954.00;6300518;22;20045;-83
2023/06/13 00:48:15;;;;;;;3.40;2.40;;;;;;;17.40;41.13;100959.28;6275758;22;20026;-80
2023/06/13 00:50:44;;;;;;;2.35;2.05;;;;;;;17.34;40.94;100952.41;6302409;22;20012;-86
2023/06/13 00:53:16;;;;;;;3.40;2.30;;;;;;;17.29;41.29;100949.06;6297271;22;20015;-78
2023/06/13 00:55:43;;;;;;;3.80;2.80;;;;;;;17.25;41.22;100944.75;6300920;22;20015;-79
2023/06/13 00:58:10;;;;;;;7.88;2.72;;;;;;;17.20;41.19;100948.41;6272422;22;20019;-85
2023/06/13 01:00:39;;;;;;;2.40;2.13;;;;;;;17.16;41.27;100944.13;6300027;22;20027;-78
2023/06/13 01:03:09;;;;;;;3.63;2.35;;;;;;;17.15;41.17;100947.69;6300014;22;20057;-87
2023/06/13 01:05:37;;;;;;;1.95;1.75;;;;;;;17.14;40.97;100945.09;6300971;22;20011;-79
2023/06/13 01:08:10;;;;;;;2.13;2.00;;;;;;;17.12;41.33;100946.94;6301283;22;20702;-77
2023/06/13 01:10:37;;;;;;;3.33;2.25;;;;;;;17.10;41.44;100943.47;6300843;22;20066;-81
2023/06/13 01:13:27;;;;;;;1.98;1.67;;;;;;;17.07;41.50;100939.16;6274807;22;20304;-90
2023/06/13 01:16:06;;;;;;;5.03;2.42;;;;;;;17.03;41.56;100937.50;6296936;22;20418;-78
2023/06/13 01:18:35;;;;;;;2.03;1.67;;;;;;;16.98;41.60;100936.78;6299291;22;20540;-78
2023/06/13 01:21:04;;;;;;;1.95;1.85;;;;;;;16.97;41.45;100940.34;6300394;22;20587;-80
2023/06/13 01:24:04;;;;;;;2.47;2.30;;;;;;;16.96;41.99;100935.97;6300081;22;20046;-78
2023/06/13 01:26:53;;;;;;;2.25;1.67;;;;;;;16.90;41.84;100936.16;6297995;22;20102;-82
2023/06/13 01:29:21;;;;;;;2.80;2.38;;;;;;;16.86;41.86;100938.84;6299785;22;20016;-78
2023/06/13 01:31:54;;;;;;;4.07;2.17;;;;;;;16.83;41.88;100930.16;6298435;22;20109;-81
2023/06/13 01:34:21;;;;;;;2.65;2.03;;;;;;;16.82;41.91;100939.88;6296849;22;20027;-80
2023/06/13 01:36:48;;;;;;;11.63;2.58;;;;;;;16.81;41.74;100938.13;6296103;22;20335;-84
2023/06/13 01:39:15;;;;;;;2.28;2.15;;;;;;;16.83;42.25;100952.19;6294304;22;20015;-85
2023/06/13 01:41:41;;;;;;;2.38;1.92;;;;;;;16.82;41.89;100945.16;6272416;22;20019;-80
2023/06/13 01:44:11;;;;;;;2.65;2.45;;;;;;;16.81;42.17;100942.56;6248823;22;20031;-78
2023/06/13 01:47:02;;;;;;;2.65;2.55;;;;;;;16.81;42.26;100947.84;6300329;22;20023;-80
2023/06/13 01:49:56;;;;;;;3.08;2.00;;;;;;;16.82;42.30;100945.16;6299640;22;20026;-77
2023/06/13 01:53:05;;;;;;;1.90;1.80;;;;;;;16.75;42.39;100941.00;6270182;22;20502;-82
2023/06/13 01:55:50;;;;;;;2.80;2.50;;;;;;;16.69;42.44;100938.53;6300552;22;20011;-79
2023/06/13 01:58:35;;;;;;;2.30;1.80;;;;;;;16.64;42.43;100941.28;6296737;22;20407;-79
2023/06/13 02:01:05;;;;;;;2.20;1.95;;;;;;;16.56;42.23;100938.00;6275685;22;20015;-81
2023/06/13 02:03:34;;;;;;;4.78;2.30;;;;;;;16.51;42.55;100939.94;6300673;22;20450;-80
2023/06/13 02:06:01;;;;;;;2.40;2.20;;;;;;;16.42;42.93;100940.19;6301129;22;20656;-78
2023/06/13 02:08:28;;;;;;;2.33;1.92;;;;;;;16.31;43.26;100938.72;6275839;22;20011;-79
2023/06/13 02:10:54;;;;;;;4.38;2.35;;;;;;;16.27;43.09;100942.38;6301914;22;20019;-83
2023/06/13 02:13:21;;;;;;;2.55;1.83;;;;;;;16.20;43.44;100946.97;6300320;22;20018;-81
2023/06/13 02:15:47;;;;;;;2.47;1.95;;;;;;;16.14;42.99;100949.75;6296005;22;20019;-78
2023/06/13 02:18:15;;;;;;;3.90;2.20;;;;;;;16.11;43.52;100948.97;6300352;22;20038;-79
2023/06/13 02:20:42;;;;;;;2.20;2.10;;;;;;;16.04;43.84;100950.91;6300091;22;20007;-80
2023/06/13 02:23:09;;;;;;;2.28;2.05;;;;;;;15.99;44.05;100939.59;6275513;22;20019;-78
2023/06/13 02:25:36;;;;;;;5.05;2.72;;;;;;;15.92;44.02;100940.66;6300112;22;20019;-84
2023/06/13 02:28:02;;;;;;;2.25;2.03;;;;;;;15.91;44.44;100937.16;6297704;22;20015;-78
2023/06/13 02:30:29;;;;;;;2.30;1.90;;;;;;;15.87;44.57;100940.81;6275436;22;20011;-78
2023/06/13 02:32:55;;;;;;;2.13;1.95;;;;;;;15.83;44.97;100940.00;6275531;22;20015;-80
2023/06/13 02:35:23;;;;;;;2.25;2.15;;;;;;;15.81;44.73;100939.19;6274689;22;20023;-79
2023/06/13 02:37:53;;;;;;;4.75;2.22;;;;;;;15.75;45.10;100943.72;6300277;22;20090;-79
2023/06/13 02:40:23;;;;;;;2.40;1.90;;;;;;;15.71;44.96;100943.81;6300024;22;20011;-77
2023/06/13 02:42:52;;;;;;;4.53;2.42;;;;;;;15.67;45.00;100941.28;6300360;22;20019;-77
2023/06/13 02:45:18;;;;;;;3.60;2.38;;;;;;;15.59;45.19;100944.13;6300832;22;20026;-84
2023/06/13 02:47:45;;;;;;;2.25;2.15;;;;;;;15.51;45.59;100946.97;6300427;22;20496;-80
2023/06/13 02:50:11;;;;;;;3.53;2.42;;;;;;;15.46;45.77;100948.84;6274520;22;20015;-78
2023/06/13 02:52:38;;;;;;;3.20;2.47;;;;;;;15.39;46.10;100942.81;6271937;22;20123;-78
2023/06/13 02:55:10;;;;;;;2.50;2.30;;;;;;;15.38;46.01;100951.66;6297165;22;20012;-83
2023/06/13 02:57:40;;;;;;;3.85;2.28;;;;;;;15.34;46.43;100947.38;6299428;22;20015;-80
2023/06/13 03:00:10;;;;;;;4.80;2.63;;;;;;;15.30;46.27;100942.19;6295089;22;20011;-78
2023/06/13 03:02:37;;;;;;;2.35;2.15;;;;;;;15.24;46.62;100940.59;6297979;22;20047;-80
2023/06/13 03:05:10;;;;;;;2.55;2.40;;;;;;;15.23;46.76;100944.13;6300303;22;20015;-81
2023/06/13 03:07:42;;;;;;;2.10;1.90;;;;;;;15.16;46.61;100932.84;6301182;22;20023;-79
2023/06/13 03:10:09;;;;;;;4.90;2.38;;;;;;;15.11;47.11;100945.28;6300866;22;20256;-82
2023/06/13 03:12:36;;;;;;;5.90;2.80;;;;;;;15.09;47.06;100947.06;6300034;22;20082;-80
2023/06/13 03:15:02;;;;;;;2.30;2.10;;;;;;;15.07;47.05;100938.34;6300043;22;20022;-89
2023/06/13 03:17:29;;;;;;;3.75;2.47;;;;;;;15.02;47.11;100943.72;6283126;22;20027;-79
2023/06/13 03:19:56;;;;;;;2.78;2.58;;;;;;;15.01;47.95;100939.34;6295810;22;20073;-84
2023/06/13 03:22:22;;;;;;;2.67;1.90;;;;;;;14.98;47.83;100934.13;6296880;22;20390;-78
2023/06/13 03:24:50;;;;;;;2.10;1.95;;;;;;;14.96;47.77;100937.72;6298753;22;20019;-80
2023/06/13 03:27:17;;;;;;;2.22;2.03;;;;;;;14.92;47.91;100922.88;6299017;22;20125;-82
2023/06/13 03:29:43;;;;;;;2.55;2.20;;;;;;;14.89;47.97;100929.06;6298766;22;20098;-78
2023/06/13 03:32:10;;;;;;;3.75;2.25;;;;;;;14.89;48.54;100927.28;6247197;22;20094;-78
2023/06/13 03:34:39;;;;;;;2.95;1.88;;;;;;;14.84;48.77;100934.44;6299230;22;20423;-77
2023/06/13 03:37:09;;;;;;;2.08;1.90;;;;;;;14.82;48.70;100928.34;6299369;22;20023;-90
2023/06/13 03:39:37;;;;;;;6.10;2.33;;;;;;;14.78;48.64;100934.56;6300584;22;20119;-78
2023/06/13 03:42:04;;;;;;;1.50;1.50;;;;;;;14.76;49.24;100932.88;6299984;22;20027;-78
2023/06/13 03:44:31;;;;;;;6.00;2.22;;;;;;;14.75;48.88;100932.00;6299072;22;20015;-82
2023/06/13 03:46:58;;;;;;;2.40;1.90;;;;;;;14.70;49.40;100933.88;6300111;22;20536;-79
2023/06/13 03:49:26;;;;;;;4.18;2.38;;;;;;;14.69;49.40;100933.03;6301137;22;20427;-81
2023/06/13 03:51:53;;;;;;;3.42;2.17;;;;;;;14.68;49.36;100935.69;6299306;22;20074;-86
2023/06/13 03:54:21;;;;;;;3.35;2.22;;;;;;;14.65;49.41;100941.00;6299290;22;20030;-78
2023/06/13 03:56:47;;;;;;;2.90;2.65;;;;;;;14.68;49.51;100938.34;6298883;22;20078;-78
2023/06/13 03:59:13;;;;;;;3.10;1.60;;;;;;;14.69;49.80;100940.03;6299681;22;20011;-79
2023/06/13 04:01:41;;;;;;;2.20;1.75;;;;;;;14.69;49.59;100947.94;6298238;22;20015;-78
2023/06/13 04:04:09;;;;;;;5.15;1.95;;;;;;;14.68;49.54;100940.97;6297990;22;20050;-83
2023/06/13 04:06:37;;;;;;;3.22;2.42;;;;;;;14.68;50.31;100947.09;6294259;22;20097;-84
2023/06/13 04:09:05;;;;;;;2.65;1.80;;;;;;;14.71;49.67;100948.78;6303602;22;20312;-81
2023/06/13 04:11:34;;;;;;;4.40;2.05;;;;;;;14.71;50.03;100944.38;6277463;22;20019;-78
2023/06/13 04:14:02;;;;;;;3.63;2.30;;;;;;;14.70;49.95;100947.91;6303710;22;20022;-76
2023/06/13 04:16:28;;;;;;;5.75;2.53;;;;;;;14.68;49.89;100947.09;6300642;22;20362;-83
2023/06/13 04:18:55;;;;;;;2.25;1.67;;;;;;;14.71;49.69;100951.44;6301082;22;20019;-81
2023/06/13 04:21:24;;;;;;;4.95;1.90;;;;;;;14.75;49.90;100957.50;6275400;22;20102;-78
2023/06/13 04:23:51;;;;;;;2.42;2.25;;;;;;;14.80;49.59;100947.75;6302167;22;20012;-79
2023/06/13 04:26:18;;;;;;;3.00;1.77;;;;;;;14.87;49.41;100946.69;6302140;22;20019;-81
2023/06/13 04:28:46;;;;;;;2.42;2.30;;;;;;;14.91;49.69;100952.75;6300817;22;20331;-91
2023/06/13 04:31:13;;;;;;;2.08;1.95;;;;;;;14.93;49.08;100949.19;6296910;22;20102;-80
2023/06/13 04:33:40;;;;;;;2.40;2.20;;;;;;;15.01;48.99;100949.88;6273603;22;20442;-78
2023/06/13 04:36:08;;;;;;;2.85;1.77;;;;;;;15.06;48.80;100960.34;6299519;22;20267;-80
2023/06/13 04:38:37;;;;;;;2.80;1.50;;;;;;;15.09;48.95;100954.13;6299928;22;20122;-82
2023/06/13 04:41:04;;;;;;;2.08;1.67;;;;;;;15.12;48.68;100954.03;6298217;22;20019;-80
2023/06/13 04:43:33;;;;;;;1.88;1.77;;;;;;;15.15;48.54;100951.34;6270809;22;20022;-88
2023/06/13 04:46:03;;;;;;;1.83;1.73;;;;;;;15.17;48.68;100950.38;6272492;22;20511;-78
2023/06/13 04:48:31;;;;;;;1.95;1.85;;;;;;;15.24;48.38;100944.97;6300763;22;20069;-79
2023/06/13 04:50:59;;;;;;;3.80;1.65;;;;;;;15.33;48.36;100944.75;6299636;22;20022;-85
2023/06/13 04:53:28;;;;;;;4.85;2.63;;;;;;;15.42;48.28;100947.16;6300874;22;20461;-78
2023/06/13 04:55:58;;;;;;;1.65;1.50;;;;;;;15.48;48.31;100938.25;6298450;22;20034;-83
2023/06/13 04:58:25;;;;;;;3.95;1.85;;;;;;;15.49;48.22;100938.19;6302044;22;20011;-77
2023/06/13 05:00:52;;;;;;;2.65;2.10;;;;;;;15.52;48.20;100939.91;6303246;22;20020;-78
2023/06/13 05:03:20;;;;;;;4.47;2.03;;;;;;;15.53;48.10;100944.28;6305694;22;20023;-78
2023/06/13 05:05:47;;;;;;;1.83;1.73;;;;;;;15.54;47.92;100941.59;6300452;22;20070;-81
2023/06/13 05:08:19;;;;;;;2.03;1.83;;;;;;;15.55;47.83;100942.44;6299404;22;20461;-79
2023/06/13 05:10:46;;;;;;;2.88;1.88;;;;;;;15.56;48.00;100941.56;6296205;22;20109;-83
2023/06/13 05:13:13;;;;;;;2.45;2.05;;;;;;;15.59;47.77;100943.25;6296601;22;20019;-82
2023/06/13 05:15:42;;;;;;;2.92;1.88;;;;;;;15.60;47.76;100940.56;6271437;22;20080;-84
2023/06/13 05:18:12;;;;;;;5.40;1.65;;;;;;;15.60;48.02;100942.34;6298220;22;20071;-78
2023/06/13 05:20:39;;;;;;;3.03;1.73;;;;;;;15.64;48.02;100941.34;6269967;22;20477;-78
2023/06/13 05:23:07;;;;;;;3.08;2.00;;;;;;;15.66;47.65;100943.06;6295850;22;20106;-86
2023/06/13 05:25:33;;;;;;;2.95;2.10;;;;;;;15.69;47.84;100937.69;6295443;22;20122;-77
2023/06/13 05:28:01;;;;;;;3.38;1.42;;;;;;;15.74;47.84;100937.59;6266350;22;20382;-78
2023/06/13 05:30:28;;;;;;;3.15;2.13;;;;;;;15.80;47.79;100941.81;6273713;22;20023;-78
2023/06/13 05:32:54;;;;;;;2.53;1.77;;;;;;;15.86;47.88;100947.84;6292863;22;20632;-87
2023/06/13 05:35:21;;;;;;;6.13;2.60;;;;;;;15.92;47.25;100943.31;6241029;22;20334;-82
2023/06/13 05:37:51;;;;;;;3.45;2.15;;;;;;;15.94;47.22;100939.72;6293540;22;20236;-81
2023/06/13 05:40:17;;;;;;;4.30;1.85;;;;;;;15.96;46.88;100937.91;6269772;22;20011;-82
2023/06/13 05:42:44;;;;;;;3.45;2.20;;;;;;;16.00;46.87;100936.06;6299245;22;20019;-79
2023/06/13 05:45:10;;;;;;;11.30;2.03;;;;;;;16.03;46.91;100938.59;6269527;22;20523;-78
2023/06/13 05:47:37;;;;;;;7.57;2.35;;;;;;;16.11;46.65;100935.75;6295504;22;20026;-82
2023/06/13 05:50:05;;;;;;;5.18;1.92;;;;;;;16.09;46.43;100929.66;6294105;22;20102;-81
2023/06/13 05:52:33;;;;;;;9.60;2.75;;;;;;;16.10;46.34;100926.09;6268579;22;20027;-84
2023/06/13 05:55:01;;;;;;;5.70;2.33;;;;;;;16.14;46.39;100922.47;6295144;22;20018;-81
2023/06/13 05:57:45;;;;;;;7.60;2.08;;;;;;;16.17;46.23;100927.69;6270892;22;20027;-85
2023/06/13 06:00:13;;;;;;;8.10;2.78;;;;;;;16.22;46.24;100933.69;6271417;22;20474;-85
2023/06/13 06:02:45;;;;;;;6.63;2.22;;;;;;;16.31;46.33;100922.88;6271668;22;20030;-81
2023/06/13 06:05:13;;;;;;;6.32;2.30;;;;;;;16.38;46.06;100921.75;6296933;22;20039;-80
2023/06/13 06:07:44;;;;;;;5.80;2.28;;;;;;;16.38;46.08;100919.13;6271750;22;20019;-78
2023/06/13 06:10:12;;;;;;;6.65;2.60;;;;;;;16.46;46.25;100918.91;6296312;22;20449;-80
2023/06/13 06:12:39;;;;;;;6.13;2.65;;;;;;;16.56;45.95;100922.16;6296437;22;20430;-78
2023/06/13 06:15:06;;;;;;;7.18;2.40;;;;;;;16.61;45.87;100916.72;6295952;22;20073;-88
2023/06/13 06:17:33;;;;;;;4.32;2.28;;;;;;;16.63;45.71;100922.84;6296856;22;20156;-81
2023/06/13 06:19:59;;;;;;;6.15;2.30;;;;;;;16.63;45.91;100928.97;6295840;22;20034;-78
2023/06/13 06:22:26;;;;;;;11.52;2.85;;;;;;;16.61;45.99;100924.66;6295428;22;20030;-80
2023/06/13 06:24:52;;;;;;;7.60;2.67;;;;;;;16.56;45.85;100926.56;6295714;22;20019;-80
2023/06/13 06:27:19;;;;;;;8.70;2.22;;;;;;;16.60;46.00;100922.94;6296149;22;20027;-77
2023/06/13 06:29:45;;;;;;;6.45;2.72;;;;;;;16.73;46.27;100923.44;6296627;22;20015;-87
2023/06/13 06:32:13;;;;;;;8.55;2.88;;;;;;;16.83;45.38;100923.09;6295315;22;20011;-78
2023/06/13 06:34:39;;;;;;;9.50;3.00;;;;;;;16.86;46.18;100920.34;6295862;22;20034;-80
2023/06/13 06:37:07;;;;;;;6.07;2.85;;;;;;;17.03;45.97;100929.59;6244283;22;20027;-81
2023/06/13 06:39:34;;;;;;;6.65;3.05;;;;;;;17.14;45.68;100922.19;6270555;22;20482;-78
2023/06/13 06:42:00;;;;;;;17.95;3.90;;;;;;;17.21;45.16;100925.50;6295629;22;20015;-79
2023/06/13 06:44:27;;;;;;;9.02;2.55;;;;;;;17.24;45.33;100927.16;6270106;22;20019;-77
2023/06/13 06:46:53;;;;;;;5.47;2.78;;;;;;;17.24;45.35;100933.31;6271463;22;20073;-83
2023/06/13 06:49:20;;;;;;;6.25;3.50;;;;;;;17.32;45.29;100927.78;6296290;22;20027;-80
2023/06/13 06:51:46;;;;;;;8.77;3.50;;;;;;;17.36;45.24;100929.41;6270614;22;20015;-86
2023/06/13 06:54:13;;;;;;;13.00;3.42;;;;;;;17.42;45.24;100923.91;6271615;22;20022;-80
2023/06/13 06:56:39;;;;;;;5.60;2.72;;;;;;;17.59;45.21;100927.78;6290151;22;20074;-84
2023/06/13 06:59:06;;;;;;;3.40;2.60;;;;;;;17.72;44.80;100930.84;6297145;22;20023;-87
2023/06/13 07:01:32;;;;;;;7.22;2.97;;;;;;;17.84;44.76;100922.50;6270903;22;20022;-81
2023/06/13 07:03:58;;;;;;;6.55;3.03;;;;;;;17.88;44.39;100917.97;6271384;22;20021;-79
2023/06/13 07:06:25;;;;;;;6.63;2.60;;;;;;;17.93;44.68;100918.72;6270341;22;20214;-79
2023/06/13 07:08:54;;;;;;;2.72;2.15;;;;;;;18.00;44.38;100913.13;6293097;22;20065;-81
2023/06/13 07:11:21;;;;;;;7.22;3.05;;;;;;;18.07;44.28;100916.44;6294215;22;20019;-82
2023/06/13 07:13:48;;;;;;;7.80;3.05;;;;;;;18.12;44.17;100910.94;6245676;22;20034;-79
2023/06/13 07:16:15;;;;;;;8.63;3.58;;;;;;;18.26;43.78;100913.09;6270741;22;20023;-80
2023/06/13 07:18:42;;;;;;;9.10;2.85;;;;;;;18.47;43.35;100922.03;6298565;22;20457;-81
2023/06/13 07:21:08;;;;;;;9.57;3.53;;;;;;;18.70;43.21;100923.81;6246072;22;20042;-78
2023/06/13 07:23:35;;;;;;;7.40;2.83;;;;;;;18.97;42.66;100923.69;6296347;22;20026;-84
2023/06/13 07:26:01;;;;;;;5.50;2.85;;;;;;;19.46;41.98;100920.81;6295556;22;20019;-81
2023/06/13 07:28:28;;;;;;;9.55;3.55;;;;;;;19.91;40.62;100919.81;6292269;22;20015;-79
2023/06/13 07:30:55;;;;;;;7.00;3.22;;;;;;;20.20;40.53;100922.09;6270457;22;20015;-79
2023/06/13 07:33:21;;;;;;;7.57;2.58;;;;;;;20.70;39.99;100916.25;6253423;22;20026;-83
2023/06/13 07:35:48;;;;;;;11.32;3.53;;;;;;;21.31;38.79;100920.44;6296240;22;20478;-85
2023/06/13 07:38:14;;;;;;;7.28;3.40;;;;;;;21.76;38.05;100914.69;6297012;22;20098;-80
2023/06/13 07:40:41;;;;;;;11.75;3.63;;;;;;;22.53;37.08;100923.94;6295607;22;20061;-80
2023/06/13 07:43:07;;;;;;;11.38;3.95;;;;;;;23.18;35.89;100922.16;6243345;22;20106;-83
2023/06/13 07:45:34;;;;;;;6.75;3.47;;;;;;;23.64;35.20;100923.94;6296356;22;20084;-86
2023/06/13 07:48:01;;;;;;;7.65;3.38;;;;;;;23.98;33.99;100919.25;6269538;22;20186;-82
2023/06/13 07:50:28;;;;;;;10.50;3.15;;;;;;;24.37;33.88;100917.75;6293625;22;20023;-82
2023/06/13 07:52:55;;;;;;;11.52;3.72;;;;;;;24.66;33.11;100918.59;6292726;22;20023;-83
2023/06/13 07:55:22;;;;;;;12.68;3.58;;;;;;;24.97;31.87;100910.41;6267627;22;20023;-82
2023/06/13 07:57:48;;;;;;;7.63;3.42;;;;;;;25.26;32.50;100909.28;6293811;22;20007;-84
2023/06/13 08:00:16;;;;;;;4.45;3.78;;;;;;;25.40;32.03;100912.91;6296932;22;20011;-84
2023/06/13 08:02:42;;;;;;;5.88;3.40;;;;;;;25.61;31.67;100910.59;6294209;22;20019;-79
2023/06/13 08:05:10;;;;;;;8.95;3.03;;;;;;;26.13;30.92;100902.63;6291068;22;20046;-81
2023/06/13 08:07:37;;;;;;;3.55;2.78;;;;;;;26.46;30.71;100909.22;6295465;22;20019;-83
2023/06/13 08:10:04;;;;;;;7.53;3.00;;;;;;;26.51;29.93;100901.69;6295663;22;20034;-81
2023/06/13 08:12:30;;;;;;;4.07;3.40;;;;;;;26.87;30.49;100916.97;6292871;22;20023;-79
2023/06/13 08:14:57;;;;;;;7.28;3.63;;;;;;;27.10;29.29;100909.00;6294653;22;20019;-84
2023/06/13 08:17:24;;;;;;;6.95;3.60;;;;;;;27.03;28.99;100918.53;6294863;22;20016;-80
2023/06/13 08:19:51;;;;;;;6.53;3.40;;;;;;;27.22;28.90;100912.59;6238721;22;20020;-81
2023/06/13 08:22:18;;;;;;;7.00;4.03;;;;;;;27.67;28.59;100910.09;6264004;22;20077;-83
2023/06/13 08:24:46;;;;;;;5.30;3.15;;;;;;;28.27;28.44;100903.72;6264780;22;20042;-86
2023/06/13 08:27:16;;;;;;;3.65;3.13;;;;;;;28.52;27.50;100911.50;6239774;22;20020;-81
2023/06/13 08:29:43;;;;;;;15.20;3.67;;;;;;;29.03;27.09;100901.16;6264745;22;20011;-81
2023/06/13 08:32:09;;;;;;;7.90;3.45;;;;;;;29.15;25.92;100904.66;6263882;22;20020;-80
2023/06/13 08:34:37;;;;;;;6.43;2.53;;;;;;;29.51;26.61;100906.09;6259121;22;20020;-86
2023/06/13 08:37:04;;;;;;;5.03;3.15;;;;;;;29.83;26.05;100901.63;6260722;22;20020;-85
2023/06/13 08:39:31;;;;;;;4.47;2.63;;;;;;;29.95;25.46;100892.50;6262685;22;20024;-84
2023/06/13 08:41:58;;;;;;;4.78;2.30;;;;;;;30.13;25.81;100894.53;6264627;22;20015;-80
2023/06/13 08:44:26;;;;;;;2.90;2.60;;;;;;;30.63;25.17;100894.59;6264422;22;20049;-81
2023/06/13 08:46:53;;;;;;;4.72;2.78;;;;;;;31.13;24.90;100893.72;6239407;22;20403;-82
2023/06/13 08:49:19;;;;;;;5.35;2.58;;;;;;;31.60;24.10;100890.25;6263901;22;20023;-81
2023/06/13 08:51:48;;;;;;;4.93;2.58;;;;;;;31.78;24.08;100894.94;6289302;22;20023;-80
2023/06/13 08:54:16;;;;;;;5.88;2.88;;;;;;;31.37;23.94;100896.94;6265663;22;20034;-84
2023/06/13 08:56:44;;;;;;;7.00;3.58;;;;;;;31.22;23.88;100899.25;6266814;22;20016;-79
2023/06/13 08:59:27;;;;;;;5.15;2.90;;;;;;;31.42;23.44;100900.94;6267251;22;20012;-81
2023/06/13 09:01:54;;;;;;;3.33;2.80;;;;;;;31.79;23.65;100889.34;6266224;22;20019;-82
2023/06/13 09:04:23;;;;;;;7.22;2.60;;;;;;;32.52;23.08;100887.78;6268200;22;20106;-83
2023/06/13 09:06:51;;;;;;;7.90;2.88;;;;;;;32.56;21.99;100891.06;6297224;22;20019;-82
2023/06/13 09:09:18;;;;;;;4.07;2.33;;;;;;;32.55;22.78;100886.63;6301013;22;20021;-83
2023/06/13 09:11:46;;;;;;;5.95;2.92;;;;;;;32.03;22.61;100885.28;6303009;22;20056;-79
2023/06/13 09:14:13;;;;;;;4.70;3.08;;;;;;;31.82;23.17;100885.50;6301798;22;20053;-83
2023/06/13 09:16:41;;;;;;;4.40;2.65;;;;;;;31.80;23.27;100882.13;6329023;22;20088;-84
2023/06/13 09:19:07;;;;;;;4.65;3.25;;;;;;;32.70;22.89;100876.13;6300435;22;20568;-84
2023/06/13 09:21:36;;;;;;;4.95;3.05;;;;;;;33.67;21.59;100877.16;6276209;22;20030;-87
2023/06/13 09:24:03;;;;;;;3.50;3.13;;;;;;;33.73;20.83;100876.53;6301782;22;20089;-80
2023/06/13 09:26:30;;;;;;;3.20;2.50;;;;;;;33.99;21.27;100872.09;6300011;22;20061;-81
2023/06/13 09:28:58;;;;;;;3.75;2.85;;;;;;;33.64;21.00;100870.19;6298949;22;20074;-83
2023/06/13 09:31:28;;;;;;;6.22;2.78;;;;;;;34.02;21.09;100872.66;6299454;22;20018;-81
2023/06/13 09:33:55;;;;;;;4.18;2.88;;;;;;;34.18;20.56;100874.56;6302462;22;20061;-80
2023/06/13 09:36:24;;;;;;;2.80;2.65;;;;;;;34.78;20.43;100873.59;6303526;22;20019;-83
2023/06/13 09:38:53;;;;;;;3.65;2.90;;;;;;;35.03;20.24;100870.06;6330874;22;20755;-82
2023/06/13 09:41:21;;;;;;;5.57;2.65;;;;;;;35.51;19.66;100867.53;6303131;22;20027;-82
2023/06/13 09:43:52;;;;;;;3.08;2.83;;;;;;;34.86;19.80;100869.22;6303953;22;20068;-80
2023/06/13 09:46:19;;;;;;;2.97;2.67;;;;;;;35.40;19.72;100861.41;6302396;22;20010;-80
2023/06/13 09:48:46;;;;;;;7.38;3.65;;;;;;;36.04;18.54;100865.22;6277703;22;20023;-79
2023/06/13 09:51:13;;;;;;;7.90;3.22;;;;;;;35.03;19.42;100860.06;6301852;22;20476;-85
2023/06/13 09:53:40;;;;;;;9.40;4.03;;;;;;;35.03;19.16;100865.50;6298383;22;20041;-80
2023/06/13 09:56:10;;;;;;;5.95;2.67;;;;;;;35.50;19.17;100858.53;6299089;22;20477;-85
2023/06/13 09:58:38;;;;;;;4.97;2.72;;;;;;;36.94;18.46;100846.69;6299972;22;20497;-80
2023/06/13 10:01:04;;;;;;;3.95;3.28;;;;;;;36.16;18.01;100843.88;6329906;22;20019;-85
2023/06/13 10:03:31;;;;;;;3.95;2.90;;;;;;;35.70;18.52;100844.53;6301782;22;20109;-80
2023/06/13 10:05:59;;;;;;;4.30;3.15;;;;;;;36.35;18.29;100848.03;6296697;22;20019;-82
2023/06/13 10:08:27;;;;;;;7.90;3.28;;;;;;;36.79;17.99;100831.06;6301906;22;20045;-82
2023/06/13 10:10:55;;;;;;;6.15;2.95;;;;;;;36.80;17.62;100843.66;6301998;22;20124;-84
2023/06/13 10:13:26;;;;;;;6.53;3.28;;;;;;;36.86;17.31;100851.16;6257852;22;20106;-83
2023/06/13 10:15:58;;;;;;;3.15;2.70;;;;;;;37.04;17.60;100844.53;6298032;22;20011;-83
2023/06/13 10:18:38;;;;;;;3.05;2.80;;;;;;;37.62;15.93;100838.56;6301991;22;20443;-79
2023/06/13 10:21:06;;;;;;;4.00;2.40;;;;;;;37.68;16.07;100835.91;6301985;22;20027;-80
2023/06/13 10:23:41;;;;;;;3.38;3.13;;;;;;;37.53;16.42;100835.88;6301380;22;20069;-81
2023/06/13 10:26:11;;;;;;;3.78;2.85;;;;;;;38.61;15.78;100837.31;6302432;22;20098;-83
2023/06/13 10:29:02;;;;;;;3.10;2.90;;;;;;;39.85;14.72;100830.53;6329720;22;20017;-84
2023/06/13 10:31:50;;;;;;;4.65;2.95;;;;;;;38.64;14.69;100825.97;6297998;22;20014;-80
2023/06/13 10:35:09;;;;;;;2.88;2.50;;;;;;;37.82;14.96;100833.38;6326759;22;20022;-82
2023/06/13 10:37:59;;;;;;;4.68;2.85;;;;;;;39.21;13.90;100816.00;6301038;22;20787;-81
2023/06/13 10:40:38;;;;;;;2.72;2.53;;;;;;;39.19;14.15;100824.41;6276259;22;20082;-80
2023/06/13 10:43:19;;;;;;;3.15;2.95;;;;;;;38.59;14.14;100818.34;6328693;22;20015;-81
2023/06/13 10:45:46;;;;;;;3.35;3.15;;;;;;;37.82;14.13;100823.31;6329268;22;20415;-85
2023/06/13 10:48:13;;;;;;;3.75;3.00;;;;;;;37.97;14.49;100814.25;6297758;22;20491;-84
2023/06/13 10:50:43;;;;;;;3.28;3.05;;;;;;;37.90;14.51;100816.88;6300301;22;20025;-85
2023/06/13 10:53:24;;;;;;;3.15;2.90;;;;;;;37.64;14.59;100798.22;6275785;22;20027;-82
2023/06/13 10:55:50;;;;;;;3.72;3.40;;;;;;;38.01;14.70;100810.94;6302436;22;20014;-80
2023/06/13 10:58:17;;;;;;;4.30;3.05;;;;;;;38.06;15.09;100811.22;6301604;22;20022;-85
2023/06/13 11:00:44;;;;;;;5.10;3.20;;;;;;;38.32;14.71;100807.13;6297759;22;20014;-84
2023/06/13 11:03:14;;;;;;;3.67;3.20;;;;;;;38.98;14.06;100803.38;6298836;22;20018;-80
2023/06/13 11:05:46;;;;;;;6.05;3.78;;;;;;;40.22;13.63;100802.84;6327314;22;20034;-80
2023/06/13 11:08:15;;;;;;;6.78;3.20;;;;;;;40.48;13.19;100799.31;6324345;22;20029;-85
2023/06/13 11:10:46;;;;;;;;;;;;;;;40.74;12.63;100798.53;6300274;22;20425;-82
2023/06/13 11:13:21;;;;;;;3.53;3.28;;;;;;;40.80;13.15;100788.63;6272995;22;19918;-82
2023/06/13 11:15:50;;;;;;;3.63;3.33;;;;;;;37.82;13.99;100786.94;6326020;22;20034;-84
2023/06/13 11:18:19;;;;;;;6.85;3.40;;;;;;;37.28;14.53;100788.88;6295744;22;20023;-82
2023/06/13 11:20:58;;;;;;;4.10;3.80;;;;;;;38.38;14.53;100772.69;6323583;22;20110;-81
2023/06/13 11:23:39;;;;;;;7.03;3.33;;;;;;;38.91;14.15;100769.63;6296268;22;20015;-85
2023/06/13 11:26:06;;;;;;;4.15;3.08;;;;;;;37.65;14.62;100772.63;6300475;22;20015;-85
2023/06/13 11:28:33;;;;;;;3.53;3.22;;;;;;;35.59;15.99;100777.66;6274778;22;20022;-83
2023/06/13 11:31:06;;;;;;;5.50;3.20;;;;;;;34.87;16.80;100768.41;6301038;22;20442;-80
2023/06/13 11:33:39;;;;;;;3.40;3.08;;;;;;;33.37;17.83;100770.81;6300697;22;20094;-81